sensor_id;sensor_type;location;lat;lon;timestamp;P1;durP1;ratioP1;P2;durP2;ratioP2
23113;SDS011;11726;50.122;8.832;2023-11-21T00:01:14;3.47;;;1.25;;
23113;SDS011;11726;50.122;8.832;2023-11-21T00:03:41;5.97;;;1.17;;
23113;SDS011;11726;50.122;8.832;2023-11-21T00:06:08;6.22;;;1.50;;
23113;SDS011;11726;50.122;8.832;2023-11-21T00:08:35;3.97;;;1.00;;
23113;SDS011;11726;50.122;8.832;2023-11-21T00:11:02;3.17;;;1.10;;
23113;SDS011;11726;50.122;8.832;2023-11-21T00:13:31;1.45;;;0.82;;
23113;SDS011;11726;50.122;8.832;2023-11-21T00:15:58;2.00;;;0.93;;
23113;SDS011;11726;50.122;8.832;2023-11-21T00:18:25;1.95;;;0.73;;
23113;SDS011;11726;50.122;8.832;2023-11-21T00:20:52;2.85;;;1.00;;
23113;SDS011;11726;50.122;8.832;2023-11-21T00:23:18;5.30;;;1.38;;
23113;SDS011;11726;50.122;8.832;2023-11-21T00:25:45;2.78;;;1.02;;
23113;SDS011;11726;50.122;8.832;2023-11-21T00:28:12;4.03;;;1.48;;
23113;SDS011;11726;50.122;8.832;2023-11-21T00:30:38;1.83;;;1.23;;
23113;SDS011;11726;50.122;8.832;2023-11-21T00:33:05;2.28;;;1.15;;
23113;SDS011;11726;50.122;8.832;2023-11-21T00:35:32;2.88;;;1.52;;
23113;SDS011;11726;50.122;8.832;2023-11-21T00:37:58;9.80;;;3.17;;
23113;SDS011;11726;50.122;8.832;2023-11-21T00:40:25;5.40;;;2.47;;
23113;SDS011;11726;50.122;8.832;2023-11-21T00:42:52;6.13;;;1.80;;
23113;SDS011;11726;50.122;8.832;2023-11-21T00:45:18;6.15;;;2.55;;
23113;SDS011;11726;50.122;8.832;2023-11-21T00:47:45;6.13;;;1.85;;
23113;SDS011;11726;50.122;8.832;2023-11-21T00:50:12;3.17;;;1.45;;
23113;SDS011;11726;50.122;8.832;2023-11-21T00:52:39;5.65;;;1.77;;
23113;SDS011;11726;50.122;8.832;2023-11-21T00:55:06;2.15;;;1.30;;
23113;SDS011;11726;50.122;8.832;2023-11-21T00:57:34;5.60;;;1.48;;
23113;SDS011;11726;50.122;8.832;2023-11-21T01:00:01;3.28;;;1.40;;
23113;SDS011;11726;50.122;8.832;2023-11-21T01:02:33;4.25;;;1.88;;
23113;SDS011;11726;50.122;8.832;2023-11-21T01:05:02;2.28;;;1.60;;
23113;SDS011;11726;50.122;8.832;2023-11-21T01:07:29;1.33;;;1.20;;
23113;SDS011;11726;50.122;8.832;2023-11-21T01:09:56;3.65;;;1.45;;
23113;SDS011;11726;50.122;8.832;2023-11-21T01:12:23;4.35;;;1.60;;
23113;SDS011;11726;50.122;8.832;2023-11-21T01:14:51;3.90;;;1.30;;
23113;SDS011;11726;50.122;8.832;2023-11-21T01:17:18;2.42;;;1.50;;
23113;SDS011;11726;50.122;8.832;2023-11-21T01:19:46;2.58;;;1.50;;
23113;SDS011;11726;50.122;8.832;2023-11-21T01:22:12;3.30;;;1.23;;
23113;SDS011;11726;50.122;8.832;2023-11-21T01:24:39;3.22;;;1.15;;
23113;SDS011;11726;50.122;8.832;2023-11-21T01:27:06;3.88;;;1.40;;
23113;SDS011;11726;50.122;8.832;2023-11-21T01:29:33;5.55;;;1.70;;
23113;SDS011;11726;50.122;8.832;2023-11-21T01:32:01;5.20;;;1.80;;
23113;SDS011;11726;50.122;8.832;2023-11-21T01:34:30;5.20;;;1.73;;
23113;SDS011;11726;50.122;8.832;2023-11-21T01:36:56;4.13;;;1.65;;
23113;SDS011;11726;50.122;8.832;2023-11-21T01:39:23;4.57;;;1.55;;
23113;SDS011;11726;50.122;8.832;2023-11-21T01:41:51;3.33;;;2.65;;
23113;SDS011;11726;50.122;8.832;2023-11-21T01:44:18;7.53;;;2.25;;
23113;SDS011;11726;50.122;8.832;2023-11-21T01:46:45;2.50;;;1.80;;
23113;SDS011;11726;50.122;8.832;2023-11-21T01:49:13;4.22;;;1.70;;
23113;SDS011;11726;50.122;8.832;2023-11-21T01:51:41;4.75;;;1.40;;
23113;SDS011;11726;50.122;8.832;2023-11-21T01:54:11;4.65;;;1.30;;
23113;SDS011;11726;50.122;8.832;2023-11-21T01:56:46;3.10;;;1.50;;
23113;SDS011;11726;50.122;8.832;2023-11-21T01:59:14;3.38;;;1.30;;
23113;SDS011;11726;50.122;8.832;2023-11-21T02:01:49;3.67;;;1.33;;
23113;SDS011;11726;50.122;8.832;2023-11-21T02:04:19;4.28;;;1.35;;
23113;SDS011;11726;50.122;8.832;2023-11-21T02:06:47;2.85;;;1.40;;
23113;SDS011;11726;50.122;8.832;2023-11-21T02:09:14;1.67;;;1.23;;
23113;SDS011;11726;50.122;8.832;2023-11-21T02:11:41;3.38;;;1.52;;
23113;SDS011;11726;50.122;8.832;2023-11-21T02:14:08;2.22;;;1.17;;
23113;SDS011;11726;50.122;8.832;2023-11-21T02:16:36;2.17;;;1.30;;
23113;SDS011;11726;50.122;8.832;2023-11-21T02:19:03;3.33;;;1.20;;
23113;SDS011;11726;50.122;8.832;2023-11-21T02:21:35;1.85;;;1.10;;
23113;SDS011;11726;50.122;8.832;2023-11-21T02:24:05;3.10;;;1.70;;
23113;SDS011;11726;50.122;8.832;2023-11-21T02:26:32;3.65;;;1.40;;
23113;SDS011;11726;50.122;8.832;2023-11-21T02:28:59;2.90;;;1.30;;
23113;SDS011;11726;50.122;8.832;2023-11-21T02:31:26;4.90;;;1.60;;
23113;SDS011;11726;50.122;8.832;2023-11-21T02:33:53;2.35;;;1.20;;
23113;SDS011;11726;50.122;8.832;2023-11-21T02:36:20;1.80;;;1.50;;
23113;SDS011;11726;50.122;8.832;2023-11-21T02:38:47;2.38;;;1.25;;
23113;SDS011;11726;50.122;8.832;2023-11-21T02:41:14;3.40;;;1.35;;
23113;SDS011;11726;50.122;8.832;2023-11-21T02:43:41;4.63;;;1.30;;
23113;SDS011;11726;50.122;8.832;2023-11-21T02:46:08;2.58;;;1.33;;
23113;SDS011;11726;50.122;8.832;2023-11-21T02:48:35;1.00;;;0.90;;
23113;SDS011;11726;50.122;8.832;2023-11-21T02:51:02;2.83;;;1.20;;
23113;SDS011;11726;50.122;8.832;2023-11-21T02:53:29;2.20;;;1.25;;
23113;SDS011;11726;50.122;8.832;2023-11-21T02:55:55;2.80;;;1.52;;
23113;SDS011;11726;50.122;8.832;2023-11-21T02:58:22;3.92;;;1.60;;
23113;SDS011;11726;50.122;8.832;2023-11-21T03:00:49;2.80;;;1.27;;
23113;SDS011;11726;50.122;8.832;2023-11-21T03:03:16;1.50;;;1.27;;
23113;SDS011;11726;50.122;8.832;2023-11-21T03:05:43;1.40;;;0.90;;
23113;SDS011;11726;50.122;8.832;2023-11-21T03:08:09;1.77;;;1.33;;
23113;SDS011;11726;50.122;8.832;2023-11-21T03:10:36;1.75;;;1.10;;
23113;SDS011;11726;50.122;8.832;2023-11-21T03:13:03;9.45;;;1.58;;
23113;SDS011;11726;50.122;8.832;2023-11-21T03:15:30;4.05;;;1.30;;
23113;SDS011;11726;50.122;8.832;2023-11-21T03:17:58;1.15;;;1.00;;
23113;SDS011;11726;50.122;8.832;2023-11-21T03:20:25;1.60;;;1.08;;
23113;SDS011;11726;50.122;8.832;2023-11-21T03:22:52;1.10;;;0.70;;
23113;SDS011;11726;50.122;8.832;2023-11-21T03:25:19;1.15;;;0.93;;
23113;SDS011;11726;50.122;8.832;2023-11-21T03:27:46;2.20;;;0.85;;
23113;SDS011;11726;50.122;8.832;2023-11-21T03:30:12;2.83;;;1.23;;
23113;SDS011;11726;50.122;8.832;2023-11-21T03:32:39;1.02;;;0.95;;
23113;SDS011;11726;50.122;8.832;2023-11-21T03:35:06;2.65;;;1.02;;
23113;SDS011;11726;50.122;8.832;2023-11-21T03:37:33;1.35;;;1.00;;
23113;SDS011;11726;50.122;8.832;2023-11-21T03:40:00;1.60;;;0.93;;
23113;SDS011;11726;50.122;8.832;2023-11-21T03:42:27;2.88;;;1.60;;
23113;SDS011;11726;50.122;8.832;2023-11-21T03:44:54;0.90;;;0.80;;
23113;SDS011;11726;50.122;8.832;2023-11-21T03:47:20;1.30;;;1.20;;
23113;SDS011;11726;50.122;8.832;2023-11-21T03:49:47;4.03;;;2.42;;
23113;SDS011;11726;50.122;8.832;2023-11-21T03:52:14;1.98;;;1.08;;
23113;SDS011;11726;50.122;8.832;2023-11-21T03:54:41;1.60;;;1.33;;
23113;SDS011;11726;50.122;8.832;2023-11-21T03:57:09;1.35;;;0.90;;
23113;SDS011;11726;50.122;8.832;2023-11-21T03:59:35;1.85;;;1.38;;
23113;SDS011;11726;50.122;8.832;2023-11-21T04:02:02;1.95;;;1.30;;
23113;SDS011;11726;50.122;8.832;2023-11-21T04:04:29;2.72;;;1.33;;
23113;SDS011;11726;50.122;8.832;2023-11-21T04:06:56;2.85;;;1.40;;
23113;SDS011;11726;50.122;8.832;2023-11-21T04:09:22;2.67;;;1.48;;
23113;SDS011;11726;50.122;8.832;2023-11-21T04:11:51;7.13;;;1.45;;
23113;SDS011;11726;50.122;8.832;2023-11-21T04:14:18;1.85;;;1.35;;
23113;SDS011;11726;50.122;8.832;2023-11-21T04:16:45;8.48;;;1.70;;
23113;SDS011;11726;50.122;8.832;2023-11-21T04:19:12;3.80;;;1.52;;
23113;SDS011;11726;50.122;8.832;2023-11-21T04:21:41;3.00;;;1.75;;
23113;SDS011;11726;50.122;8.832;2023-11-21T04:24:08;2.53;;;1.52;;
23113;SDS011;11726;50.122;8.832;2023-11-21T04:26:35;4.03;;;1.73;;
23113;SDS011;11726;50.122;8.832;2023-11-21T04:29:02;2.10;;;1.63;;
23113;SDS011;11726;50.122;8.832;2023-11-21T04:31:30;3.17;;;1.58;;
23113;SDS011;11726;50.122;8.832;2023-11-21T04:33:58;5.28;;;1.98;;
23113;SDS011;11726;50.122;8.832;2023-11-21T04:36:24;3.30;;;2.08;;
23113;SDS011;11726;50.122;8.832;2023-11-21T04:38:51;3.53;;;1.98;;
23113;SDS011;11726;50.122;8.832;2023-11-21T04:41:18;3.03;;;1.80;;
23113;SDS011;11726;50.122;8.832;2023-11-21T04:43:44;2.50;;;1.90;;
23113;SDS011;11726;50.122;8.832;2023-11-21T04:46:11;7.63;;;1.98;;
23113;SDS011;11726;50.122;8.832;2023-11-21T04:48:38;4.13;;;2.40;;
23113;SDS011;11726;50.122;8.832;2023-11-21T04:51:05;3.88;;;2.45;;
23113;SDS011;11726;50.122;8.832;2023-11-21T04:53:31;5.60;;;2.22;;
23113;SDS011;11726;50.122;8.832;2023-11-21T04:55:58;3.17;;;2.53;;
23113;SDS011;11726;50.122;8.832;2023-11-21T04:58:25;3.75;;;2.25;;
23113;SDS011;11726;50.122;8.832;2023-11-21T05:00:52;5.75;;;2.40;;
23113;SDS011;11726;50.122;8.832;2023-11-21T05:03:18;6.68;;;2.60;;
23113;SDS011;11726;50.122;8.832;2023-11-21T05:05:45;4.75;;;2.53;;
23113;SDS011;11726;50.122;8.832;2023-11-21T05:08:12;5.22;;;2.70;;
23113;SDS011;11726;50.122;8.832;2023-11-21T05:10:39;7.28;;;2.72;;
23113;SDS011;11726;50.122;8.832;2023-11-21T05:13:06;4.30;;;2.47;;
23113;SDS011;11726;50.122;8.832;2023-11-21T05:15:36;6.35;;;3.00;;
23113;SDS011;11726;50.122;8.832;2023-11-21T05:18:05;6.40;;;2.88;;
23113;SDS011;11726;50.122;8.832;2023-11-21T05:20:32;6.85;;;3.15;;
23113;SDS011;11726;50.122;8.832;2023-11-21T05:22:59;6.13;;;3.10;;
23113;SDS011;11726;50.122;8.832;2023-11-21T05:25:26;5.70;;;3.50;;
23113;SDS011;11726;50.122;8.832;2023-11-21T05:27:53;7.75;;;3.58;;
23113;SDS011;11726;50.122;8.832;2023-11-21T05:30:21;5.93;;;3.25;;
23113;SDS011;11726;50.122;8.832;2023-11-21T05:32:48;7.60;;;3.20;;
23113;SDS011;11726;50.122;8.832;2023-11-21T05:35:16;7.63;;;3.58;;
23113;SDS011;11726;50.122;8.832;2023-11-21T05:37:44;7.15;;;3.95;;
23113;SDS011;11726;50.122;8.832;2023-11-21T05:40:12;8.73;;;3.67;;
23113;SDS011;11726;50.122;8.832;2023-11-21T05:42:39;8.30;;;3.75;;
23113;SDS011;11726;50.122;8.832;2023-11-21T05:45:07;7.47;;;3.90;;
23113;SDS011;11726;50.122;8.832;2023-11-21T05:47:42;9.82;;;4.07;;
23113;SDS011;11726;50.122;8.832;2023-11-21T05:50:10;6.28;;;3.42;;
23113;SDS011;11726;50.122;8.832;2023-11-21T05:52:40;8.75;;;4.13;;
23113;SDS011;11726;50.122;8.832;2023-11-21T05:55:08;8.05;;;4.18;;
23113;SDS011;11726;50.122;8.832;2023-11-21T05:57:36;8.70;;;3.58;;
23113;SDS011;11726;50.122;8.832;2023-11-21T06:00:04;8.27;;;4.03;;
23113;SDS011;11726;50.122;8.832;2023-11-21T06:02:41;10.82;;;3.60;;
23113;SDS011;11726;50.122;8.832;2023-11-21T06:05:08;8.80;;;4.15;;
23113;SDS011;11726;50.122;8.832;2023-11-21T06:07:36;6.80;;;3.83;;
23113;SDS011;11726;50.122;8.832;2023-11-21T06:10:04;7.05;;;3.40;;
23113;SDS011;11726;50.122;8.832;2023-11-21T06:15:06;6.78;;;3.45;;
23113;SDS011;11726;50.122;8.832;2023-11-21T06:17:38;9.65;;;3.45;;
23113;SDS011;11726;50.122;8.832;2023-11-21T06:20:06;9.98;;;4.22;;
23113;SDS011;11726;50.122;8.832;2023-11-21T06:22:40;9.57;;;4.27;;
23113;SDS011;11726;50.122;8.832;2023-11-21T06:25:08;9.68;;;4.28;;
23113;SDS011;11726;50.122;8.832;2023-11-21T06:27:39;8.57;;;4.10;;
23113;SDS011;11726;50.122;8.832;2023-11-21T06:30:08;14.45;;;5.30;;
23113;SDS011;11726;50.122;8.832;2023-11-21T06:32:35;12.05;;;4.38;;
23113;SDS011;11726;50.122;8.832;2023-11-21T06:35:03;12.30;;;5.18;;
23113;SDS011;11726;50.122;8.832;2023-11-21T06:37:30;9.10;;;4.75;;
23113;SDS011;11726;50.122;8.832;2023-11-21T06:39:58;8.88;;;4.38;;
23113;SDS011;11726;50.122;8.832;2023-11-21T06:42:26;12.25;;;5.10;;
23113;SDS011;11726;50.122;8.832;2023-11-21T06:44:53;9.15;;;4.63;;
23113;SDS011;11726;50.122;8.832;2023-11-21T06:47:23;15.52;;;5.45;;
23113;SDS011;11726;50.122;8.832;2023-11-21T06:49:56;14.25;;;6.20;;
23113;SDS011;11726;50.122;8.832;2023-11-21T06:52:23;15.95;;;6.40;;
23113;SDS011;11726;50.122;8.832;2023-11-21T06:54:50;12.13;;;5.13;;
23113;SDS011;11726;50.122;8.832;2023-11-21T06:57:17;21.38;;;6.07;;
23113;SDS011;11726;50.122;8.832;2023-11-21T06:59:44;13.02;;;5.53;;
23113;SDS011;11726;50.122;8.832;2023-11-21T07:02:10;13.07;;;5.35;;
23113;SDS011;11726;50.122;8.832;2023-11-21T07:04:37;10.38;;;4.63;;
23113;SDS011;11726;50.122;8.832;2023-11-21T07:07:04;10.45;;;3.72;;
23113;SDS011;11726;50.122;8.832;2023-11-21T07:09:33;7.22;;;3.70;;
23113;SDS011;11726;50.122;8.832;2023-11-21T07:11:59;8.25;;;2.90;;
23113;SDS011;11726;50.122;8.832;2023-11-21T07:14:26;3.90;;;2.50;;
23113;SDS011;11726;50.122;8.832;2023-11-21T07:16:53;4.18;;;2.33;;
23113;SDS011;11726;50.122;8.832;2023-11-21T07:19:20;4.18;;;2.63;;
23113;SDS011;11726;50.122;8.832;2023-11-21T07:21:48;3.38;;;2.00;;
23113;SDS011;11726;50.122;8.832;2023-11-21T07:24:17;5.60;;;2.28;;
23113;SDS011;11726;50.122;8.832;2023-11-21T07:26:44;4.15;;;2.38;;
23113;SDS011;11726;50.122;8.832;2023-11-21T07:29:10;3.92;;;1.70;;
23113;SDS011;11726;50.122;8.832;2023-11-21T07:31:37;4.15;;;2.15;;
23113;SDS011;11726;50.122;8.832;2023-11-21T07:34:04;6.22;;;2.20;;
23113;SDS011;11726;50.122;8.832;2023-11-21T07:36:31;7.93;;;2.67;;
23113;SDS011;11726;50.122;8.832;2023-11-21T07:38:58;5.50;;;2.38;;
23113;SDS011;11726;50.122;8.832;2023-11-21T07:41:25;5.15;;;1.90;;
23113;SDS011;11726;50.122;8.832;2023-11-21T07:43:57;3.65;;;1.75;;
23113;SDS011;11726;50.122;8.832;2023-11-21T07:46:24;4.95;;;2.10;;
23113;SDS011;11726;50.122;8.832;2023-11-21T07:48:52;5.85;;;1.98;;
23113;SDS011;11726;50.122;8.832;2023-11-21T07:51:19;5.13;;;2.13;;
23113;SDS011;11726;50.122;8.832;2023-11-21T07:53:46;5.80;;;2.50;;
23113;SDS011;11726;50.122;8.832;2023-11-21T07:56:13;5.43;;;2.10;;
23113;SDS011;11726;50.122;8.832;2023-11-21T07:58:40;5.82;;;2.13;;
23113;SDS011;11726;50.122;8.832;2023-11-21T08:01:06;5.55;;;2.72;;
23113;SDS011;11726;50.122;8.832;2023-11-21T08:03:34;4.43;;;2.45;;
23113;SDS011;11726;50.122;8.832;2023-11-21T08:06:01;5.00;;;2.38;;
23113;SDS011;11726;50.122;8.832;2023-11-21T08:08:29;5.95;;;2.42;;
23113;SDS011;11726;50.122;8.832;2023-11-21T08:10:56;5.13;;;1.95;;
23113;SDS011;11726;50.122;8.832;2023-11-21T08:13:24;4.07;;;2.30;;
23113;SDS011;11726;50.122;8.832;2023-11-21T08:15:56;8.02;;;2.63;;
23113;SDS011;11726;50.122;8.832;2023-11-21T08:18:28;4.32;;;2.15;;
23113;SDS011;11726;50.122;8.832;2023-11-21T08:20:56;6.03;;;2.40;;
23113;SDS011;11726;50.122;8.832;2023-11-21T08:23:23;5.47;;;2.47;;
23113;SDS011;11726;50.122;8.832;2023-11-21T08:25:53;5.90;;;2.70;;
23113;SDS011;11726;50.122;8.832;2023-11-21T08:28:20;6.50;;;2.85;;
23113;SDS011;11726;50.122;8.832;2023-11-21T08:30:52;6.20;;;3.10;;
23113;SDS011;11726;50.122;8.832;2023-11-21T08:33:20;10.90;;;3.00;;
23113;SDS011;11726;50.122;8.832;2023-11-21T08:35:47;6.60;;;2.78;;
23113;SDS011;11726;50.122;8.832;2023-11-21T08:38:14;6.20;;;2.65;;
23113;SDS011;11726;50.122;8.832;2023-11-21T08:40:40;6.50;;;2.80;;
23113;SDS011;11726;50.122;8.832;2023-11-21T08:43:07;7.47;;;3.35;;
23113;SDS011;11726;50.122;8.832;2023-11-21T08:45:34;6.55;;;3.70;;
23113;SDS011;11726;50.122;8.832;2023-11-21T08:48:01;5.93;;;3.08;;
23113;SDS011;11726;50.122;8.832;2023-11-21T08:50:28;9.68;;;4.10;;
23113;SDS011;11726;50.122;8.832;2023-11-21T08:52:55;8.52;;;3.80;;
23113;SDS011;11726;50.122;8.832;2023-11-21T08:55:22;8.07;;;3.50;;
23113;SDS011;11726;50.122;8.832;2023-11-21T08:57:49;9.50;;;4.15;;
23113;SDS011;11726;50.122;8.832;2023-11-21T09:00:17;7.70;;;3.28;;
23113;SDS011;11726;50.122;8.832;2023-11-21T09:02:44;7.28;;;3.60;;
23113;SDS011;11726;50.122;8.832;2023-11-21T09:05:12;8.32;;;4.30;;
23113;SDS011;11726;50.122;8.832;2023-11-21T09:07:40;13.52;;;5.72;;
23113;SDS011;11726;50.122;8.832;2023-11-21T09:10:08;13.00;;;4.70;;
23113;SDS011;11726;50.122;8.832;2023-11-21T09:12:35;13.75;;;4.82;;
23113;SDS011;11726;50.122;8.832;2023-11-21T09:15:06;13.10;;;5.00;;
23113;SDS011;11726;50.122;8.832;2023-11-21T09:17:35;12.52;;;5.82;;
23113;SDS011;11726;50.122;8.832;2023-11-21T09:20:03;13.13;;;5.40;;
23113;SDS011;11726;50.122;8.832;2023-11-21T09:22:32;13.10;;;4.47;;
23113;SDS011;11726;50.122;8.832;2023-11-21T09:24:59;13.18;;;4.63;;
23113;SDS011;11726;50.122;8.832;2023-11-21T09:27:25;11.85;;;4.78;;
23113;SDS011;11726;50.122;8.832;2023-11-21T09:29:52;14.05;;;5.05;;
23113;SDS011;11726;50.122;8.832;2023-11-21T09:32:20;11.13;;;4.70;;
23113;SDS011;11726;50.122;8.832;2023-11-21T09:34:48;15.52;;;5.65;;
23113;SDS011;11726;50.122;8.832;2023-11-21T09:37:16;12.50;;;4.97;;
23113;SDS011;11726;50.122;8.832;2023-11-21T09:39:43;12.55;;;4.80;;
23113;SDS011;11726;50.122;8.832;2023-11-21T09:42:13;12.43;;;4.85;;
23113;SDS011;11726;50.122;8.832;2023-11-21T09:47:27;18.50;;;4.82;;
23113;SDS011;11726;50.122;8.832;2023-11-21T09:49:54;12.38;;;4.10;;
23113;SDS011;11726;50.122;8.832;2023-11-21T09:52:24;10.70;;;5.07;;
23113;SDS011;11726;50.122;8.832;2023-11-21T09:54:53;7.70;;;4.10;;
23113;SDS011;11726;50.122;8.832;2023-11-21T09:57:20;9.25;;;4.05;;
23113;SDS011;11726;50.122;8.832;2023-11-21T09:59:52;8.15;;;3.60;;
23113;SDS011;11726;50.122;8.832;2023-11-21T10:02:26;11.98;;;4.10;;
23113;SDS011;11726;50.122;8.832;2023-11-21T10:04:58;10.68;;;4.20;;
23113;SDS011;11726;50.122;8.832;2023-11-21T10:07:26;12.00;;;5.20;;
23113;SDS011;11726;50.122;8.832;2023-11-21T10:09:54;9.82;;;4.40;;
23113;SDS011;11726;50.122;8.832;2023-11-21T10:12:22;10.75;;;4.80;;
23113;SDS011;11726;50.122;8.832;2023-11-21T10:14:50;12.88;;;5.13;;
23113;SDS011;11726;50.122;8.832;2023-11-21T10:17:19;8.90;;;4.03;;
23113;SDS011;11726;50.122;8.832;2023-11-21T10:19:47;10.07;;;4.13;;
23113;SDS011;11726;50.122;8.832;2023-11-21T10:22:14;9.70;;;4.15;;
23113;SDS011;11726;50.122;8.832;2023-11-21T10:24:42;9.15;;;3.80;;
23113;SDS011;11726;50.122;8.832;2023-11-21T10:27:19;12.73;;;4.68;;
23113;SDS011;11726;50.122;8.832;2023-11-21T10:29:45;10.73;;;4.10;;
23113;SDS011;11726;50.122;8.832;2023-11-21T10:32:12;12.00;;;3.72;;
23113;SDS011;11726;50.122;8.832;2023-11-21T10:34:39;5.05;;;2.50;;
23113;SDS011;11726;50.122;8.832;2023-11-21T10:37:10;7.15;;;3.40;;
23113;SDS011;11726;50.122;8.832;2023-11-21T10:39:38;6.07;;;2.92;;
23113;SDS011;11726;50.122;8.832;2023-11-21T10:42:07;6.07;;;2.88;;
23113;SDS011;11726;50.122;8.832;2023-11-21T10:44:36;9.02;;;3.45;;
23113;SDS011;11726;50.122;8.832;2023-11-21T10:47:04;6.15;;;2.67;;
23113;SDS011;11726;50.122;8.832;2023-11-21T10:49:31;6.55;;;2.70;;
23113;SDS011;11726;50.122;8.832;2023-11-21T10:51:58;4.90;;;2.55;;
23113;SDS011;11726;50.122;8.832;2023-11-21T10:54:25;6.93;;;2.33;;
23113;SDS011;11726;50.122;8.832;2023-11-21T10:56:56;7.78;;;2.60;;
23113;SDS011;11726;50.122;8.832;2023-11-21T10:59:28;7.05;;;2.70;;
23113;SDS011;11726;50.122;8.832;2023-11-21T11:01:57;5.20;;;2.28;;
23113;SDS011;11726;50.122;8.832;2023-11-21T11:04:25;7.32;;;3.35;;
23113;SDS011;11726;50.122;8.832;2023-11-21T11:06:57;5.22;;;2.20;;
23113;SDS011;11726;50.122;8.832;2023-11-21T11:09:31;6.40;;;2.30;;
23113;SDS011;11726;50.122;8.832;2023-11-21T11:12:03;6.72;;;2.72;;
23113;SDS011;11726;50.122;8.832;2023-11-21T11:14:31;10.98;;;4.15;;
23113;SDS011;11726;50.122;8.832;2023-11-21T11:16:58;3.33;;;1.83;;
23113;SDS011;11726;50.122;8.832;2023-11-21T11:19:28;9.50;;;2.40;;
23113;SDS011;11726;50.122;8.832;2023-11-21T11:24:36;6.47;;;2.40;;
23113;SDS011;11726;50.122;8.832;2023-11-21T11:27:44;11.40;;;2.10;;
23113;SDS011;11726;50.122;8.832;2023-11-21T11:33:20;8.40;;;3.17;;
23113;SDS011;11726;50.122;8.832;2023-11-21T11:36:06;8.80;;;2.60;;
23113;SDS011;11726;50.122;8.832;2023-11-21T11:38:39;6.18;;;2.55;;
23113;SDS011;11726;50.122;8.832;2023-11-21T11:41:12;6.40;;;3.40;;
23113;SDS011;11726;50.122;8.832;2023-11-21T11:43:39;11.77;;;3.50;;
23113;SDS011;11726;50.122;8.832;2023-11-21T11:46:11;8.32;;;2.72;;
23113;SDS011;11726;50.122;8.832;2023-11-21T11:48:41;8.13;;;3.15;;
23113;SDS011;11726;50.122;8.832;2023-11-21T11:51:11;6.93;;;3.40;;
23113;SDS011;11726;50.122;8.832;2023-11-21T11:53:47;7.15;;;3.08;;
23113;SDS011;11726;50.122;8.832;2023-11-21T11:56:31;6.18;;;2.72;;
23113;SDS011;11726;50.122;8.832;2023-11-21T11:59:01;5.85;;;3.20;;
23113;SDS011;11726;50.122;8.832;2023-11-21T12:01:31;9.90;;;2.95;;
23113;SDS011;11726;50.122;8.832;2023-11-21T12:06:48;7.30;;;3.20;;
23113;SDS011;11726;50.122;8.832;2023-11-21T12:09:20;7.22;;;3.42;;
23113;SDS011;11726;50.122;8.832;2023-11-21T12:11:48;9.18;;;2.67;;
23113;SDS011;11726;50.122;8.832;2023-11-21T12:14:15;9.13;;;2.85;;
23113;SDS011;11726;50.122;8.832;2023-11-21T12:16:42;7.10;;;2.75;;
23113;SDS011;11726;50.122;8.832;2023-11-21T12:19:10;9.07;;;2.92;;
23113;SDS011;11726;50.122;8.832;2023-11-21T12:21:38;8.15;;;3.40;;
23113;SDS011;11726;50.122;8.832;2023-11-21T12:24:07;6.63;;;3.35;;
23113;SDS011;11726;50.122;8.832;2023-11-21T12:26:35;5.70;;;3.25;;
23113;SDS011;11726;50.122;8.832;2023-11-21T12:29:02;8.77;;;3.15;;
23113;SDS011;11726;50.122;8.832;2023-11-21T12:31:30;5.85;;;3.15;;
23113;SDS011;11726;50.122;8.832;2023-11-21T12:33:57;8.95;;;3.53;;
23113;SDS011;11726;50.122;8.832;2023-11-21T12:36:24;11.15;;;3.50;;
23113;SDS011;11726;50.122;8.832;2023-11-21T12:38:51;7.22;;;3.50;;
23113;SDS011;11726;50.122;8.832;2023-11-21T12:41:18;10.85;;;3.30;;
23113;SDS011;11726;50.122;8.832;2023-11-21T12:43:45;7.80;;;3.42;;
23113;SDS011;11726;50.122;8.832;2023-11-21T12:46:13;7.13;;;2.70;;
23113;SDS011;11726;50.122;8.832;2023-11-21T12:48:42;8.75;;;2.90;;
23113;SDS011;11726;50.122;8.832;2023-11-21T12:51:10;11.93;;;3.47;;
23113;SDS011;11726;50.122;8.832;2023-11-21T12:53:38;13.73;;;3.85;;
23113;SDS011;11726;50.122;8.832;2023-11-21T12:56:11;6.32;;;2.80;;
23113;SDS011;11726;50.122;8.832;2023-11-21T12:58:39;9.00;;;3.28;;
23113;SDS011;11726;50.122;8.832;2023-11-21T13:01:11;6.32;;;2.80;;
23113;SDS011;11726;50.122;8.832;2023-11-21T13:03:47;7.60;;;3.47;;
23113;SDS011;11726;50.122;8.832;2023-11-21T13:06:15;20.65;;;3.22;;
23113;SDS011;11726;50.122;8.832;2023-11-21T13:08:43;11.13;;;3.28;;
23113;SDS011;11726;50.122;8.832;2023-11-21T13:11:11;9.50;;;3.67;;
23113;SDS011;11726;50.122;8.832;2023-11-21T13:13:41;11.38;;;3.75;;
23113;SDS011;11726;50.122;8.832;2023-11-21T13:16:11;13.95;;;6.40;;
23113;SDS011;11726;50.122;8.832;2023-11-21T13:18:39;9.65;;;4.38;;
23113;SDS011;11726;50.122;8.832;2023-11-21T13:21:08;9.18;;;3.25;;
23113;SDS011;11726;50.122;8.832;2023-11-21T13:23:39;9.55;;;3.80;;
23113;SDS011;11726;50.122;8.832;2023-11-21T13:26:07;7.03;;;4.03;;
23113;SDS011;11726;50.122;8.832;2023-11-21T13:28:35;12.65;;;5.32;;
23113;SDS011;11726;50.122;8.832;2023-11-21T13:31:04;10.07;;;3.50;;
23113;SDS011;11726;50.122;8.832;2023-11-21T13:33:48;7.82;;;3.85;;
23113;SDS011;11726;50.122;8.832;2023-11-21T13:36:22;6.00;;;2.95;;
23113;SDS011;11726;50.122;8.832;2023-11-21T13:38:49;9.35;;;3.25;;
23113;SDS011;11726;50.122;8.832;2023-11-21T13:41:16;17.92;;;4.78;;
23113;SDS011;11726;50.122;8.832;2023-11-21T13:43:44;8.00;;;3.85;;
23113;SDS011;11726;50.122;8.832;2023-11-21T13:46:19;7.72;;;3.15;;
23113;SDS011;11726;50.122;8.832;2023-11-21T13:48:49;7.45;;;3.40;;
23113;SDS011;11726;50.122;8.832;2023-11-21T13:51:23;10.10;;;4.35;;
23113;SDS011;11726;50.122;8.832;2023-11-21T13:54:02;8.35;;;4.00;;
23113;SDS011;11726;50.122;8.832;2023-11-21T13:56:35;8.25;;;3.33;;
23113;SDS011;11726;50.122;8.832;2023-11-21T13:59:03;9.63;;;3.70;;
23113;SDS011;11726;50.122;8.832;2023-11-21T14:01:45;6.53;;;2.92;;
23113;SDS011;11726;50.122;8.832;2023-11-21T14:04:27;10.25;;;3.40;;
23113;SDS011;11726;50.122;8.832;2023-11-21T14:06:56;8.25;;;3.00;;
23113;SDS011;11726;50.122;8.832;2023-11-21T14:09:25;7.22;;;3.35;;
23113;SDS011;11726;50.122;8.832;2023-11-21T14:11:59;12.25;;;4.47;;
23113;SDS011;11726;50.122;8.832;2023-11-21T14:14:29;7.97;;;3.30;;
23113;SDS011;11726;50.122;8.832;2023-11-21T14:16:55;10.50;;;3.53;;
23113;SDS011;11726;50.122;8.832;2023-11-21T14:19:23;10.93;;;3.88;;
23113;SDS011;11726;50.122;8.832;2023-11-21T14:21:53;7.70;;;3.30;;
23113;SDS011;11726;50.122;8.832;2023-11-21T14:24:21;7.97;;;3.40;;
23113;SDS011;11726;50.122;8.832;2023-11-21T14:26:49;6.65;;;3.08;;
23113;SDS011;11726;50.122;8.832;2023-11-21T14:29:17;7.57;;;3.38;;
23113;SDS011;11726;50.122;8.832;2023-11-21T14:31:49;8.38;;;4.07;;
23113;SDS011;11726;50.122;8.832;2023-11-21T14:34:17;12.02;;;4.53;;
23113;SDS011;11726;50.122;8.832;2023-11-21T14:36:48;11.05;;;3.40;;
23113;SDS011;11726;50.122;8.832;2023-11-21T14:39:15;10.25;;;3.38;;
23113;SDS011;11726;50.122;8.832;2023-11-21T14:41:54;6.43;;;3.25;;
23113;SDS011;11726;50.122;8.832;2023-11-21T14:44:25;11.45;;;3.63;;
23113;SDS011;11726;50.122;8.832;2023-11-21T14:46:55;10.98;;;4.32;;
23113;SDS011;11726;50.122;8.832;2023-11-21T14:49:24;10.23;;;3.72;;
23113;SDS011;11726;50.122;8.832;2023-11-21T14:51:53;9.88;;;3.58;;
23113;SDS011;11726;50.122;8.832;2023-11-21T14:54:27;8.25;;;3.47;;
23113;SDS011;11726;50.122;8.832;2023-11-21T14:57:09;7.80;;;3.70;;
23113;SDS011;11726;50.122;8.832;2023-11-21T14:59:48;8.70;;;3.58;;
23113;SDS011;11726;50.122;8.832;2023-11-21T15:02:18;17.10;;;3.87;;
23113;SDS011;11726;50.122;8.832;2023-11-21T15:05:09;7.78;;;3.85;;
23113;SDS011;11726;50.122;8.832;2023-11-21T15:07:41;9.00;;;3.95;;